createdAt,value
2018-04-14T00:00:05.749Z,9.26
2018-04-14T00:01:05.731Z,9.24
2018-04-14T00:02:05.722Z,9.20
2018-04-14T00:03:05.716Z,9.27
2018-04-14T00:04:05.708Z,9.16
2018-04-14T00:05:05.685Z,9.23
2018-04-14T00:06:05.675Z,9.26
2018-04-14T00:07:05.663Z,9.27
2018-04-14T00:08:05.655Z,9.23
2018-04-14T00:09:05.639Z,9.26
2018-04-14T00:10:05.626Z,9.24
2018-04-14T00:11:05.622Z,9.23
2018-04-14T00:12:05.603Z,9.17
2018-04-14T00:13:05.590Z,9.19
2018-04-14T00:14:05.579Z,9.20
2018-04-14T00:15:05.570Z,9.22
2018-04-14T00:16:05.562Z,9.06
2018-04-14T00:17:05.544Z,9.20
2018-04-14T00:18:05.536Z,9.26
2018-04-14T00:19:05.521Z,9.23
2018-04-14T00:20:05.507Z,9.24
2018-04-14T00:21:05.500Z,9.26
2018-04-14T00:22:05.484Z,9.24
2018-04-14T00:23:05.474Z,9.23
2018-04-14T00:24:05.468Z,9.27
2018-04-14T00:25:05.457Z,9.20
2018-04-14T00:26:05.438Z,9.27
2018-04-14T00:27:05.427Z,9.31
2018-04-14T00:28:05.417Z,9.30
2018-04-14T00:29:05.401Z,9.30
2018-04-14T00:30:05.398Z,9.23
2018-04-14T00:31:05.380Z,9.19
2018-04-14T00:32:05.369Z,9.17
2018-04-14T00:33:05.362Z,9.04
2018-04-14T00:34:05.345Z,9.10
2018-04-14T00:35:05.332Z,9.13
2018-04-14T00:36:05.321Z,9.16
2018-04-14T00:37:05.313Z,9.10
2018-04-14T00:38:05.300Z,9.08
2018-04-14T00:39:05.283Z,9.00
2018-04-14T00:40:05.277Z,8.98
2018-04-14T00:41:05.259Z,8.97
2018-04-14T00:42:05.252Z,8.98
2018-04-14T00:43:05.243Z,9.03
2018-04-14T00:44:05.232Z,8.94
2018-04-14T00:45:05.220Z,8.93
2018-04-14T00:46:05.205Z,8.94
2018-04-14T00:47:05.189Z,8.97
2018-04-14T00:48:05.177Z,9.01
2018-04-14T00:49:05.162Z,8.89
2018-04-14T00:50:05.151Z,8.86
2018-04-14T00:51:05.140Z,8.91
2018-04-14T00:52:05.128Z,8.82
2018-04-14T00:53:05.116Z,8.94
2018-04-14T00:54:05.110Z,8.88
2018-04-14T00:55:05.091Z,8.91
2018-04-14T00:56:05.078Z,8.91
2018-04-14T00:57:05.073Z,8.93
2018-04-14T00:58:05.061Z,8.85
2018-04-14T00:59:05.043Z,8.94
2018-04-14T01:00:05.035Z,8.86
2018-04-14T01:01:05.018Z,8.80
2018-04-14T01:02:05.008Z,8.89
2018-04-14T01:03:05.000Z,8.94
2018-04-14T01:04:04.981Z,8.91
2018-04-14T01:05:04.976Z,8.86
2018-04-14T01:06:04.968Z,8.89
2018-04-14T01:07:04.947Z,8.83
2018-04-14T01:08:04.939Z,8.76
2018-04-14T01:09:04.922Z,8.78
2018-04-14T01:10:04.922Z,8.71
2018-04-14T01:11:04.904Z,8.76
2018-04-14T01:12:04.885Z,8.65
2018-04-14T01:13:04.880Z,8.70
2018-04-14T01:14:04.870Z,8.58
2018-04-14T01:15:04.852Z,8.55
2018-04-14T01:16:04.842Z,8.52
2018-04-14T01:17:04.830Z,8.49
2018-04-14T01:18:04.815Z,8.55
2018-04-14T01:19:04.809Z,8.54
2018-04-14T01:20:04.796Z,8.57
2018-04-14T01:21:04.791Z,8.57
2018-04-14T01:22:04.817Z,8.63
2018-04-14T01:23:04.763Z,8.57
2018-04-14T01:24:04.743Z,8.58
2018-04-14T01:25:04.730Z,8.67
2018-04-14T01:26:04.718Z,8.61
2018-04-14T01:27:04.704Z,8.64
2018-04-14T01:28:04.691Z,8.63
2018-04-14T01:29:04.685Z,8.60
2018-04-14T01:30:04.674Z,8.55
2018-04-14T01:31:04.661Z,8.54
2018-04-14T01:32:04.644Z,8.52
2018-04-14T01:33:04.636Z,8.52
2018-04-14T01:34:04.622Z,8.63
2018-04-14T01:35:04.606Z,8.64
2018-04-14T01:36:04.593Z,8.55
2018-04-14T01:37:04.588Z,8.54
2018-04-14T01:38:04.578Z,8.49
2018-04-14T01:39:04.557Z,8.50
2018-04-14T01:40:04.545Z,8.49
2018-04-14T01:41:04.533Z,8.55
2018-04-14T01:42:04.519Z,8.46
2018-04-14T01:43:04.513Z,8.37
2018-04-14T01:44:04.493Z,8.45
2018-04-14T01:45:04.484Z,8.39
2018-04-14T01:46:04.477Z,8.37
2018-04-14T01:47:04.458Z,8.36
2018-04-14T01:48:04.446Z,8.32
2018-04-14T01:49:04.433Z,8.40
2018-04-14T01:50:04.421Z,8.37
2018-04-14T01:51:04.409Z,8.36
2018-04-14T01:52:04.395Z,8.37
2018-04-14T01:53:04.384Z,8.34
2018-04-14T01:54:04.371Z,8.34
2018-04-14T01:55:04.358Z,8.43
2018-04-14T01:56:04.346Z,8.45
2018-04-14T01:57:04.334Z,8.43
2018-04-14T01:58:04.321Z,8.45
2018-04-14T01:59:04.312Z,8.39
2018-04-14T02:00:04.298Z,8.37
2018-04-14T02:01:04.285Z,8.45
2018-04-14T02:02:04.272Z,8.49
2018-04-14T02:03:04.259Z,8.52
2018-04-14T02:04:04.247Z,8.55
2018-04-14T02:05:04.236Z,8.45
2018-04-14T02:06:04.227Z,8.42
2018-04-14T02:07:04.207Z,8.45
2018-04-14T02:08:04.194Z,8.36
2018-04-14T02:09:04.182Z,8.36
2018-04-14T02:10:04.178Z,8.29
2018-04-14T02:11:04.156Z,8.28
2018-04-14T02:12:04.144Z,8.29
2018-04-14T02:13:04.131Z,8.24
2018-04-14T02:14:04.125Z,8.18
2018-04-14T02:15:04.112Z,8.10
2018-04-14T02:16:04.096Z,8.22
2018-04-14T02:17:04.082Z,8.25
2018-04-14T02:18:04.070Z,8.32
2018-04-14T02:19:04.062Z,8.27
2018-04-14T02:20:04.043Z,8.24
2018-04-14T02:21:04.031Z,8.21
2018-04-14T02:22:04.028Z,8.31
2018-04-14T02:23:04.005Z,8.17
2018-04-14T02:24:03.992Z,8.14
2018-04-14T02:25:03.983Z,8.10
2018-04-14T02:26:03.979Z,8.10
2018-04-14T02:27:03.960Z,8.00
2018-04-14T02:28:03.942Z,8.10
2018-04-14T02:29:03.933Z,8.10
2018-04-14T02:30:03.915Z,8.14
2018-04-14T02:31:03.908Z,8.21
2018-04-14T02:32:03.889Z,8.18
2018-04-14T02:33:03.877Z,8.12
2018-04-14T02:34:03.866Z,8.14
2018-04-14T02:35:03.859Z,8.12
2018-04-14T02:36:03.837Z,8.06
2018-04-14T02:37:03.824Z,8.07
2018-04-14T02:38:03.814Z,8.10
2018-04-14T02:39:03.800Z,8.07
2018-04-14T02:40:03.785Z,8.04
2018-04-14T02:41:03.777Z,7.96
2018-04-14T02:42:03.763Z,7.96
2018-04-14T02:43:03.750Z,7.96
2018-04-14T02:44:03.735Z,7.94
2018-04-14T02:45:03.734Z,8.03
2018-04-14T02:46:03.710Z,7.99
2018-04-14T02:47:03.697Z,8.02
2018-04-14T02:48:03.684Z,7.95
2018-04-14T02:49:03.681Z,7.95
2018-04-14T02:50:03.659Z,7.96
2018-04-14T02:51:03.654Z,7.96
2018-04-14T02:52:03.633Z,7.92
2018-04-14T02:53:03.627Z,7.79
2018-04-14T02:54:03.627Z,7.84
2018-04-14T02:55:03.597Z,7.86
2018-04-14T02:56:03.587Z,7.82
2018-04-14T02:57:03.575Z,7.79
2018-04-14T02:58:03.560Z,7.76
2018-04-14T02:59:03.551Z,7.82
2018-04-14T03:00:03.546Z,7.79
2018-04-14T03:01:03.519Z,7.74
2018-04-14T03:02:03.512Z,7.82
2018-04-14T03:03:03.492Z,7.70
2018-04-14T03:04:03.486Z,7.82
2018-04-14T03:05:03.479Z,7.73
2018-04-14T03:06:03.463Z,7.89
2018-04-14T03:07:03.440Z,7.82
2018-04-14T03:08:03.425Z,7.70
2018-04-14T03:09:03.421Z,7.69
2018-04-14T03:10:03.402Z,7.77
2018-04-14T03:11:03.394Z,7.81
2018-04-14T03:12:03.382Z,7.79
2018-04-14T03:13:03.369Z,7.81
2018-04-14T03:14:03.356Z,7.86
2018-04-14T03:15:03.349Z,7.95
2018-04-14T03:16:03.329Z,7.99
2018-04-14T03:17:03.308Z,8.04
2018-04-14T03:18:03.302Z,8.10
2018-04-14T03:19:03.284Z,7.99
2018-04-14T03:20:03.273Z,8.10
2018-04-14T03:21:03.260Z,7.89
2018-04-14T03:22:03.246Z,7.96
2018-04-14T03:23:03.231Z,7.95
2018-04-14T03:24:03.217Z,7.77
2018-04-14T03:25:03.204Z,7.94
2018-04-14T03:26:03.200Z,7.95
2018-04-14T03:27:03.177Z,7.89
2018-04-14T03:28:03.169Z,7.91
2018-04-14T03:29:03.152Z,7.89
2018-04-14T03:30:03.138Z,7.74
2018-04-14T03:31:03.126Z,7.79
2018-04-14T03:32:03.112Z,7.71
2018-04-14T03:33:03.105Z,7.71
2018-04-14T03:34:03.092Z,7.77
2018-04-14T03:35:03.078Z,7.76
2018-04-14T03:36:03.060Z,7.69
2018-04-14T03:37:03.056Z,7.67
2018-04-14T03:38:03.032Z,7.69
2018-04-14T03:39:03.018Z,7.60
2018-04-14T03:40:03.004Z,7.69
2018-04-14T03:41:02.999Z,7.63
2018-04-14T03:42:02.981Z,7.52
2018-04-14T03:43:02.975Z,7.52
2018-04-14T03:44:02.950Z,7.44
2018-04-14T03:45:02.939Z,7.51
2018-04-14T03:46:02.927Z,7.48
2018-04-14T03:47:02.912Z,7.44
2018-04-14T03:48:02.898Z,7.41
2018-04-14T03:49:02.888Z,7.42
2018-04-14T03:50:02.873Z,7.45
2018-04-14T03:51:02.867Z,7.54
2018-04-14T03:52:02.848Z,7.45
2018-04-14T03:53:02.839Z,7.54
2018-04-14T03:54:02.826Z,7.47
2018-04-14T03:55:02.807Z,7.52
2018-04-14T03:56:02.797Z,7.58
2018-04-14T03:57:02.781Z,7.41
2018-04-14T03:58:02.772Z,7.52
2018-04-14T03:59:02.753Z,7.54
2018-04-14T04:00:02.739Z,7.58
2018-04-14T04:01:02.728Z,7.54
2018-04-14T04:02:02.715Z,7.60
2018-04-14T04:03:02.699Z,7.42
2018-04-14T04:04:02.693Z,7.47
2018-04-14T04:05:02.676Z,7.41
2018-04-14T04:06:02.661Z,7.42
2018-04-14T04:07:02.650Z,7.37
2018-04-14T04:08:02.633Z,7.37
2018-04-14T04:09:02.622Z,7.47
2018-04-14T04:10:02.612Z,7.39
2018-04-14T04:11:02.602Z,7.39
2018-04-14T04:12:02.581Z,7.48
2018-04-14T04:13:02.569Z,7.44
2018-04-14T04:14:02.561Z,7.36
2018-04-14T04:15:02.541Z,7.26
2018-04-14T04:16:02.528Z,7.33
2018-04-14T04:17:02.514Z,7.36
2018-04-14T04:18:02.500Z,7.32
2018-04-14T04:19:02.485Z,7.30
2018-04-14T04:20:02.477Z,7.23
2018-04-14T04:21:02.463Z,7.27
2018-04-14T04:22:02.450Z,7.24
2018-04-14T04:23:02.433Z,7.32
2018-04-14T04:24:02.419Z,7.29
2018-04-14T04:25:02.407Z,7.27
2018-04-14T04:26:02.394Z,7.23
2018-04-14T04:27:02.381Z,7.24
2018-04-14T04:28:02.364Z,7.26
2018-04-14T04:29:02.357Z,7.27
2018-04-14T04:30:02.341Z,7.27
2018-04-14T04:31:02.329Z,7.30
2018-04-14T04:32:02.319Z,7.30
2018-04-14T04:33:02.303Z,7.36
2018-04-14T04:34:02.285Z,7.36
2018-04-14T04:35:02.273Z,7.36
2018-04-14T04:36:02.259Z,7.39
2018-04-14T04:37:02.245Z,7.34
2018-04-14T04:38:02.231Z,7.37
2018-04-14T04:39:02.218Z,7.34
2018-04-14T04:40:02.207Z,7.24
2018-04-14T04:41:02.190Z,7.44
2018-04-14T04:42:02.178Z,7.26
2018-04-14T04:43:02.174Z,7.24
2018-04-14T04:44:02.157Z,7.27
2018-04-14T04:45:02.139Z,7.26
2018-04-14T04:46:02.124Z,7.30
2018-04-14T04:47:02.113Z,7.34
2018-04-14T04:48:02.100Z,7.42
2018-04-14T04:49:02.083Z,7.52
2018-04-14T04:50:02.075Z,7.44
2018-04-14T04:51:02.062Z,7.42
2018-04-14T04:52:02.045Z,7.37
2018-04-14T04:53:02.031Z,7.39
2018-04-14T04:54:02.017Z,7.41
2018-04-14T04:55:02.005Z,7.45
2018-04-14T04:56:01.992Z,7.41
2018-04-14T04:57:01.979Z,7.48
2018-04-14T04:58:01.971Z,7.50
2018-04-14T04:59:01.951Z,7.39
2018-04-14T05:00:01.945Z,7.47
2018-04-14T05:01:01.922Z,7.42
2018-04-14T05:02:01.909Z,7.52
2018-04-14T05:03:01.896Z,7.45
2018-04-14T05:04:01.891Z,7.50
2018-04-14T05:05:01.877Z,7.48
2018-04-14T05:06:01.856Z,7.45
2018-04-14T05:07:01.850Z,7.48
2018-04-14T05:08:01.836Z,7.47
2018-04-14T05:09:01.823Z,7.50
2018-04-14T05:10:01.814Z,7.44
2018-04-14T05:11:01.796Z,7.44
2018-04-14T05:12:01.787Z,7.54
2018-04-14T05:13:01.765Z,7.60
2018-04-14T05:14:01.757Z,7.51
2018-04-14T05:15:01.746Z,7.51
2018-04-14T05:16:01.723Z,7.51
2018-04-14T05:17:01.710Z,7.55
2018-04-14T05:18:01.704Z,7.63
2018-04-14T05:19:01.684Z,7.76
2018-04-14T05:20:01.675Z,7.88
2018-04-14T05:21:01.663Z,8.00
2018-04-14T05:22:01.645Z,8.03
2018-04-14T05:23:01.631Z,8.06
2018-04-14T05:24:01.619Z,8.09
2018-04-14T05:25:01.610Z,8.21
2018-04-14T05:26:01.595Z,8.31
2018-04-14T05:27:01.585Z,8.34
2018-04-14T05:28:01.578Z,8.45
2018-04-14T05:29:01.561Z,8.52
2018-04-14T05:30:01.550Z,8.64
2018-04-14T05:31:01.536Z,8.88
2018-04-14T05:32:01.533Z,9.00
2018-04-14T05:33:01.509Z,9.08
2018-04-14T05:34:01.491Z,9.17
2018-04-14T05:35:01.481Z,9.31
2018-04-14T05:36:01.465Z,9.41
2018-04-14T05:37:01.460Z,9.44
2018-04-14T05:38:01.441Z,9.65
2018-04-14T05:39:01.428Z,9.73
2018-04-14T05:40:01.421Z,9.73
2018-04-14T05:41:01.409Z,9.73
2018-04-14T05:42:01.391Z,9.83
2018-04-14T05:43:01.378Z,9.89
2018-04-14T05:44:01.366Z,9.98
2018-04-14T05:45:01.354Z,10.24
2018-04-14T05:46:01.346Z,10.32
2018-04-14T05:47:01.335Z,10.44
2018-04-14T05:48:01.317Z,10.46
2018-04-14T05:49:01.309Z,10.35
2018-04-14T05:50:01.301Z,10.36
2018-04-14T05:51:01.283Z,10.38
2018-04-14T05:52:01.275Z,10.36
2018-04-14T05:53:01.258Z,10.34
2018-04-14T05:54:01.248Z,10.28
2018-04-14T05:55:01.235Z,10.32
2018-04-14T05:56:01.223Z,10.24
2018-04-14T05:57:01.212Z,10.31
2018-04-14T05:58:01.200Z,10.32
2018-04-14T05:59:01.192Z,10.25
2018-04-14T06:00:01.281Z,10.31
2018-04-14T06:01:01.165Z,10.46
2018-04-14T06:02:01.163Z,10.43
2018-04-14T06:03:01.151Z,10.38
2018-04-14T06:04:01.130Z,10.38
2018-04-14T06:05:01.127Z,10.39
2018-04-14T06:06:01.111Z,10.38
2018-04-14T06:07:01.101Z,10.38
2018-04-14T06:08:01.088Z,10.43
2018-04-14T06:09:01.106Z,10.43
2018-04-14T06:10:01.063Z,10.52
2018-04-14T06:11:01.055Z,10.47
2018-04-14T06:12:01.042Z,10.63
2018-04-14T06:13:01.031Z,10.55
2018-04-14T06:14:01.021Z,10.54
2018-04-14T06:15:01.010Z,10.54
2018-04-14T06:16:01.001Z,10.51
2018-04-14T06:17:00.992Z,10.43
2018-04-14T06:18:00.983Z,10.49
2018-04-14T06:19:00.974Z,10.62
2018-04-14T06:20:00.958Z,10.57
2018-04-14T06:21:00.941Z,10.80
2018-04-14T06:22:00.935Z,10.91
2018-04-14T06:23:00.926Z,11.11
2018-04-14T06:24:00.910Z,11.09
2018-04-14T06:25:00.905Z,11.20
2018-04-14T06:26:00.889Z,11.21
2018-04-14T06:27:00.876Z,11.28
2018-04-14T06:28:00.865Z,11.27
2018-04-14T06:29:00.857Z,11.42
2018-04-14T06:30:00.845Z,11.31
2018-04-14T06:31:00.835Z,11.49
2018-04-14T06:32:00.824Z,11.53
2018-04-14T06:33:00.817Z,11.44
2018-04-14T06:34:00.805Z,11.42
2018-04-14T06:35:00.792Z,11.46
2018-04-14T06:36:00.787Z,11.48
2018-04-14T06:37:00.771Z,11.53
2018-04-14T06:38:00.767Z,11.60
2018-04-14T06:39:00.758Z,11.60
2018-04-14T06:40:00.746Z,11.72
2018-04-14T06:41:00.736Z,11.74
2018-04-14T06:42:00.721Z,11.85
2018-04-14T06:43:00.710Z,12.01
2018-04-14T06:44:00.734Z,12.08
2018-04-14T06:45:00.697Z,12.22
2018-04-14T06:46:00.680Z,12.25
2018-04-14T06:47:00.671Z,12.25
2018-04-14T06:48:00.666Z,12.41
2018-04-14T06:49:00.657Z,12.49
2018-04-14T06:50:00.649Z,12.56
2018-04-14T06:51:00.639Z,12.61
2018-04-14T06:52:00.626Z,12.61
2018-04-14T06:53:00.612Z,12.63
2018-04-14T06:54:00.611Z,12.67
2018-04-14T06:55:00.596Z,12.71
2018-04-14T06:56:00.583Z,12.69
2018-04-14T06:57:00.574Z,12.71
2018-04-14T06:58:00.563Z,12.77
2018-04-14T06:59:00.556Z,12.87
2018-04-14T07:00:00.551Z,12.85
2018-04-14T07:01:00.535Z,12.80
2018-04-14T07:02:00.528Z,12.88
2018-04-14T07:03:00.518Z,13.07
2018-04-14T07:04:00.507Z,13.13
2018-04-14T07:05:00.507Z,13.19
2018-04-14T07:06:00.496Z,13.27
2018-04-14T07:07:00.480Z,13.32
2018-04-14T07:08:00.479Z,13.36
2018-04-14T07:09:00.462Z,13.39
2018-04-14T07:10:00.454Z,13.65
2018-04-14T07:11:00.450Z,13.72
2018-04-14T07:12:00.436Z,13.73
2018-04-14T07:13:00.432Z,13.91
2018-04-14T07:14:00.423Z,14.01
2018-04-14T07:15:00.418Z,14.02
2018-04-14T07:16:00.407Z,14.05
2018-04-14T07:17:00.394Z,14.11
2018-04-14T07:18:00.387Z,14.11
2018-04-14T07:19:00.378Z,14.23
2018-04-14T07:20:00.377Z,14.31
2018-04-14T07:21:00.363Z,14.44
2018-04-14T07:22:00.356Z,14.54
2018-04-14T07:23:00.341Z,14.56
2018-04-14T07:24:00.332Z,14.67
2018-04-14T07:25:00.331Z,14.61
2018-04-14T07:26:00.321Z,14.78
2018-04-14T07:27:00.314Z,14.67
2018-04-14T07:28:00.300Z,14.86
2018-04-14T07:29:00.296Z,14.85
2018-04-14T07:30:00.286Z,14.78
2018-04-14T07:31:00.277Z,14.93
2018-04-14T07:32:00.268Z,14.87
2018-04-14T07:33:00.266Z,14.98
2018-04-14T07:34:00.258Z,15.00
2018-04-14T07:35:00.248Z,14.95
2018-04-14T07:36:00.241Z,15.01
2018-04-14T07:37:00.228Z,15.05
2018-04-14T07:38:00.222Z,14.95
2018-04-14T07:39:00.215Z,15.09
2018-04-14T07:40:00.206Z,15.16
2018-04-14T07:41:00.207Z,15.25
2018-04-14T07:42:00.191Z,15.27
2018-04-14T07:43:00.184Z,15.34
2018-04-14T07:44:00.174Z,15.34
2018-04-14T07:45:00.170Z,15.44
2018-04-14T07:46:00.160Z,15.46
2018-04-14T07:47:00.153Z,15.48
2018-04-14T07:48:00.145Z,15.55
2018-04-14T07:49:00.138Z,15.52
2018-04-14T07:50:00.141Z,15.59
2018-04-14T07:51:00.134Z,15.73
2018-04-14T07:52:00.116Z,15.78
2018-04-14T07:53:00.110Z,15.86
2018-04-14T07:54:00.104Z,15.89
2018-04-14T07:55:00.096Z,15.96
2018-04-14T07:56:00.089Z,15.98
2018-04-14T07:57:00.082Z,16.13
2018-04-14T07:58:00.081Z,16.27
2018-04-14T07:59:00.070Z,16.30
2018-04-14T08:00:00.065Z,16.37
2018-04-14T08:01:00.059Z,16.37
2018-04-14T08:02:00.056Z,16.44
2018-04-14T08:03:00.041Z,16.51
2018-04-14T08:04:00.035Z,16.59
2018-04-14T08:05:00.034Z,16.57
2018-04-14T08:06:00.022Z,16.62
2018-04-14T08:07:00.021Z,16.75
2018-04-14T08:08:00.008Z,16.69
2018-04-14T08:08:59.999Z,16.87
2018-04-14T08:09:59.995Z,16.88
2018-04-14T08:10:59.990Z,16.92
2018-04-14T08:11:59.987Z,16.96
2018-04-14T08:12:59.983Z,17.07
2018-04-14T08:13:59.975Z,17.07
2018-04-14T08:14:59.973Z,17.14
2018-04-14T08:15:59.958Z,17.22
2018-04-14T08:16:59.956Z,17.21
2018-04-14T08:17:59.951Z,17.25
2018-04-14T08:18:59.939Z,17.36
2018-04-14T08:19:59.939Z,17.27
2018-04-14T08:20:59.926Z,17.30
2018-04-14T08:21:59.923Z,17.46
2018-04-14T08:22:59.918Z,17.49
2018-04-14T08:23:59.906Z,17.55
2018-04-14T08:24:59.908Z,17.55
2018-04-14T08:25:59.896Z,17.73
2018-04-14T08:26:59.893Z,17.65
2018-04-14T08:27:59.884Z,17.68
2018-04-14T08:28:59.880Z,17.70
2018-04-14T08:29:59.875Z,17.77
2018-04-14T08:30:59.867Z,17.80
2018-04-14T08:31:59.868Z,17.79
2018-04-14T08:32:59.855Z,17.83
2018-04-14T08:33:59.852Z,17.77
2018-04-14T08:34:59.854Z,17.81
2018-04-14T08:35:59.839Z,17.79
2018-04-14T08:36:59.832Z,17.74
2018-04-14T08:37:59.830Z,17.84
2018-04-14T08:38:59.822Z,17.80
2018-04-14T08:39:59.823Z,17.79
2018-04-14T08:40:59.809Z,17.89
2018-04-14T08:41:59.806Z,17.89
2018-04-14T08:42:59.804Z,17.77
2018-04-14T08:43:59.804Z,17.84
2018-04-14T08:44:59.790Z,17.87
2018-04-14T08:45:59.787Z,17.95
2018-04-14T08:46:59.779Z,17.96
2018-04-14T08:47:59.771Z,18.01
2018-04-14T08:48:59.772Z,18.10
2018-04-14T08:49:59.759Z,18.13
2018-04-14T08:50:59.756Z,18.19
2018-04-14T08:51:59.750Z,18.28
2018-04-14T08:52:59.744Z,18.23
2018-04-14T08:53:59.748Z,18.21
2018-04-14T08:54:59.732Z,18.20
2018-04-14T08:55:59.734Z,18.29
2018-04-14T08:56:59.728Z,18.26
2018-04-14T08:57:59.717Z,18.32
2018-04-14T08:58:59.710Z,18.29
2018-04-14T08:59:59.704Z,18.41
2018-04-14T09:00:59.717Z,18.53
2018-04-14T09:01:59.710Z,18.39
2018-04-14T09:02:59.698Z,18.38
2018-04-14T09:03:59.684Z,18.42
2018-04-14T09:04:59.686Z,18.42
2018-04-14T09:05:59.682Z,18.46
2018-04-14T09:06:59.671Z,18.50
2018-04-14T09:07:59.663Z,18.53
2018-04-14T09:08:59.659Z,18.59
2018-04-14T09:09:59.654Z,18.49
2018-04-14T09:10:59.650Z,18.65
2018-04-14T09:11:59.643Z,18.62
2018-04-14T09:12:59.638Z,18.72
2018-04-14T09:13:59.638Z,18.74
2018-04-14T09:14:59.631Z,18.64
2018-04-14T09:15:59.625Z,18.78
2018-04-14T09:16:59.621Z,18.78
2018-04-14T09:17:59.614Z,18.79
2018-04-14T09:18:59.614Z,18.87
2018-04-14T09:19:59.610Z,18.84
2018-04-14T09:20:59.601Z,18.89
2018-04-14T09:21:59.599Z,19.01
2018-04-14T09:22:59.594Z,18.99
2018-04-14T09:23:59.587Z,19.01
2018-04-14T09:24:59.583Z,18.89
2018-04-14T09:25:59.579Z,18.99
2018-04-14T09:26:59.576Z,19.13
2018-04-14T09:27:59.570Z,19.09
2018-04-14T09:28:59.568Z,19.27
2018-04-14T09:29:59.564Z,19.30
2018-04-14T09:30:59.555Z,19.42
2018-04-14T09:31:59.548Z,19.40
2018-04-14T09:32:59.544Z,19.52
2018-04-14T09:33:59.545Z,19.53
2018-04-14T09:34:59.537Z,19.60
2018-04-14T09:35:59.531Z,19.61
2018-04-14T09:36:59.581Z,19.60
2018-04-14T09:37:59.524Z,19.58
2018-04-14T09:38:59.517Z,19.46
2018-04-14T09:39:59.518Z,19.53
2018-04-14T09:40:59.510Z,19.67
2018-04-14T09:41:59.515Z,19.62
2018-04-14T09:42:59.536Z,19.67
2018-04-14T09:43:59.496Z,19.64
2018-04-14T09:44:59.494Z,19.64
2018-04-14T09:45:59.493Z,19.50
2018-04-14T09:46:59.484Z,19.65
2018-04-14T09:47:59.478Z,19.60
2018-04-14T09:48:59.486Z,19.68
2018-04-14T09:49:59.468Z,19.67
2018-04-14T09:50:59.475Z,19.71
2018-04-14T09:51:59.469Z,19.52
2018-04-14T09:52:59.456Z,19.62
2018-04-14T09:53:59.452Z,19.45
2018-04-14T09:54:59.450Z,19.35
2018-04-14T09:55:59.442Z,19.20
2018-04-14T09:56:59.441Z,19.09
2018-04-14T09:57:59.442Z,19.02
2018-04-14T09:58:59.433Z,19.15
2018-04-14T09:59:59.425Z,19.15
2018-04-14T10:00:59.421Z,19.27
2018-04-14T10:01:59.415Z,19.27
2018-04-14T10:02:59.422Z,19.23
2018-04-14T10:03:59.427Z,19.12
2018-04-14T10:04:59.406Z,19.13
2018-04-14T10:05:59.404Z,18.96
2018-04-14T10:06:59.394Z,19.07
2018-04-14T10:07:59.389Z,18.97
2018-04-14T10:08:59.392Z,18.93
2018-04-14T10:09:59.389Z,18.97
2018-04-14T10:10:59.376Z,19.13
2018-04-14T10:11:59.370Z,19.12
2018-04-14T10:12:59.366Z,19.27
2018-04-14T10:13:59.369Z,19.17
2018-04-14T10:14:59.359Z,19.32
2018-04-14T10:15:59.353Z,19.34
2018-04-14T10:16:59.346Z,19.30
2018-04-14T10:17:59.345Z,19.31
2018-04-14T10:18:59.339Z,19.13
2018-04-14T10:19:59.333Z,19.06
2018-04-14T10:20:59.330Z,19.07
2018-04-14T10:21:59.324Z,19.02
2018-04-14T10:22:59.321Z,19.10
2018-04-14T10:23:59.318Z,19.24
2018-04-14T10:24:59.316Z,19.30
2018-04-14T10:25:59.311Z,19.27
2018-04-14T10:26:59.303Z,19.31
2018-04-14T10:27:59.295Z,19.31
2018-04-14T10:28:59.296Z,19.31
2018-04-14T10:29:59.294Z,19.40
2018-04-14T10:30:59.289Z,19.28
2018-04-14T10:31:59.276Z,19.34
2018-04-14T10:32:59.311Z,19.38
2018-04-14T10:33:59.287Z,19.39
2018-04-14T10:34:59.265Z,19.39
2018-04-14T10:35:59.270Z,19.43
2018-04-14T10:36:59.255Z,19.40
2018-04-14T10:37:59.359Z,19.31
2018-04-14T10:38:59.275Z,19.28
2018-04-14T10:39:59.260Z,19.27
2018-04-14T10:40:59.266Z,19.17
2018-04-14T10:41:59.241Z,19.16
2018-04-14T10:42:59.232Z,19.07
2018-04-14T10:43:59.253Z,19.16
2018-04-14T10:44:59.220Z,19.21
2018-04-14T10:45:59.212Z,19.23
2018-04-14T10:46:59.213Z,19.15
2018-04-14T10:47:59.202Z,19.10
2018-04-14T10:48:59.211Z,19.09
2018-04-14T10:49:59.195Z,19.15
2018-04-14T10:50:59.190Z,19.27
2018-04-14T10:51:59.184Z,19.46
2018-04-14T10:52:59.179Z,19.61
2018-04-14T10:53:59.185Z,19.67
2018-04-14T10:54:59.178Z,19.80
2018-04-14T10:55:59.169Z,19.61
2018-04-14T10:56:59.163Z,19.57
2018-04-14T10:57:59.162Z,19.49
2018-04-14T10:58:59.154Z,19.42
2018-04-14T10:59:59.150Z,19.32
2018-04-14T11:00:59.143Z,19.25
2018-04-14T11:01:59.138Z,19.20
2018-04-14T11:02:59.141Z,19.30
2018-04-14T11:03:59.137Z,19.31
2018-04-14T11:04:59.131Z,19.28
2018-04-14T11:05:59.122Z,19.25
2018-04-14T11:06:59.123Z,19.32
2018-04-14T11:07:59.117Z,19.31
2018-04-14T11:08:59.107Z,19.32
2018-04-14T11:09:59.103Z,19.39
2018-04-14T11:10:59.097Z,19.55
2018-04-14T11:11:59.098Z,19.67
2018-04-14T11:12:59.088Z,19.70
2018-04-14T11:13:59.087Z,19.52
2018-04-14T11:14:59.078Z,19.46
2018-04-14T11:15:59.075Z,19.47
2018-04-14T11:16:59.070Z,19.50
2018-04-14T11:17:59.074Z,19.62
2018-04-14T11:18:59.070Z,19.58
2018-04-14T11:19:59.061Z,19.52
2018-04-14T11:20:59.056Z,19.35
2018-04-14T11:21:59.047Z,19.32
2018-04-14T11:22:59.043Z,19.34
2018-04-14T11:23:59.041Z,19.34
2018-04-14T11:24:59.031Z,19.43
2018-04-14T11:25:59.030Z,19.32
2018-04-14T11:26:59.027Z,19.31
2018-04-14T11:27:59.019Z,19.32
2018-04-14T11:28:59.015Z,19.31
2018-04-14T11:29:59.010Z,19.31
2018-04-14T11:30:59.006Z,19.39
2018-04-14T11:31:58.999Z,19.50
2018-04-14T11:32:58.993Z,19.46
2018-04-14T11:33:58.988Z,19.52
2018-04-14T11:34:58.989Z,19.49
2018-04-14T11:35:58.987Z,19.52
2018-04-14T11:36:58.981Z,19.58
2018-04-14T11:37:58.971Z,19.61
2018-04-14T11:38:58.966Z,19.78
2018-04-14T11:39:58.967Z,19.79
2018-04-14T11:40:58.956Z,19.75
2018-04-14T11:41:58.950Z,19.80
2018-04-14T11:42:58.954Z,19.85
2018-04-14T11:43:58.943Z,20.02
2018-04-14T11:44:58.937Z,19.94
2018-04-14T11:45:58.933Z,20.05
2018-04-14T11:46:58.928Z,20.07
2018-04-14T11:47:58.922Z,20.20
2018-04-14T11:48:58.921Z,20.26
2018-04-14T11:49:58.916Z,20.30
2018-04-14T11:50:58.915Z,20.41
2018-04-14T11:51:58.907Z,20.51
2018-04-14T11:52:58.900Z,20.31
2018-04-14T11:53:58.904Z,20.22
2018-04-14T11:54:58.895Z,20.25
2018-04-14T11:55:58.895Z,20.34
2018-04-14T11:56:58.885Z,20.33
2018-04-14T11:57:58.887Z,20.33
2018-04-14T11:58:58.879Z,20.33
2018-04-14T11:59:58.881Z,20.51
2018-04-14T12:00:58.873Z,20.56
2018-04-14T12:01:58.862Z,20.51
2018-04-14T12:02:58.859Z,20.51
2018-04-14T12:03:58.858Z,20.50
2018-04-14T12:04:58.850Z,20.46
2018-04-14T12:05:58.852Z,20.50
2018-04-14T12:06:58.844Z,20.61
2018-04-14T12:07:58.840Z,20.68
2018-04-14T12:08:58.835Z,20.68
2018-04-14T12:09:58.831Z,20.76
2018-04-14T12:10:58.826Z,20.73
2018-04-14T12:11:58.822Z,20.72
2018-04-14T12:12:58.819Z,20.75
2018-04-14T12:13:58.824Z,20.75
2018-04-14T12:14:58.810Z,20.90
2018-04-14T12:15:58.806Z,20.78
2018-04-14T12:16:58.803Z,20.64
2018-04-14T12:17:58.798Z,20.73
2018-04-14T12:18:58.794Z,20.78
2018-04-14T12:19:58.798Z,20.85
2018-04-14T12:20:58.793Z,20.87
2018-04-14T12:21:58.783Z,20.93
2018-04-14T12:22:58.782Z,21.00
2018-04-14T12:23:58.774Z,20.98
2018-04-14T12:24:58.777Z,20.85
2018-04-14T12:25:58.766Z,20.93
2018-04-14T12:26:58.764Z,21.01
2018-04-14T12:27:58.761Z,21.00
2018-04-14T12:28:58.764Z,20.97
2018-04-14T12:29:58.758Z,20.96
2018-04-14T12:30:58.754Z,20.94
2018-04-14T12:31:58.754Z,20.83
2018-04-14T12:32:58.743Z,20.87
2018-04-14T12:33:58.739Z,20.66
2018-04-14T12:34:58.733Z,20.75
2018-04-14T12:35:58.732Z,20.94
2018-04-14T12:36:58.726Z,20.83
2018-04-14T12:37:58.723Z,20.98
2018-04-14T12:38:58.722Z,21.12
2018-04-14T12:39:58.714Z,21.16
2018-04-14T12:40:58.710Z,21.34
2018-04-14T12:41:58.761Z,21.34
2018-04-14T12:42:58.704Z,21.55
2018-04-14T12:43:58.708Z,21.53
2018-04-14T12:44:58.702Z,21.53
2018-04-14T12:45:58.693Z,21.40
2018-04-14T12:46:58.689Z,21.27
2018-04-14T12:47:58.687Z,21.24
2018-04-14T12:48:58.689Z,21.26
2018-04-14T12:49:58.679Z,21.11
2018-04-14T12:50:58.678Z,21.06
2018-04-14T12:51:58.672Z,21.16
2018-04-14T12:52:58.668Z,21.21
2018-04-14T12:53:58.667Z,21.21
2018-04-14T12:54:58.664Z,21.15
2018-04-14T12:55:58.656Z,21.13
2018-04-14T12:56:58.654Z,21.18
2018-04-14T12:57:58.654Z,21.19
2018-04-14T12:58:58.649Z,21.26
2018-04-14T12:59:58.653Z,21.27
2018-04-14T13:00:58.645Z,21.13
2018-04-14T13:01:58.637Z,21.12
2018-04-14T13:02:58.633Z,21.13